createdAt,value
2017-06-30T00:00:18.644Z,13.42
2017-06-30T00:01:18.950Z,13.42
2017-06-30T00:02:18.625Z,13.44
2017-06-30T00:03:18.950Z,13.4
2017-06-30T00:04:18.624Z,13.47
2017-06-30T00:05:18.975Z,13.48
2017-06-30T00:06:18.604Z,13.39
2017-06-30T00:07:18.615Z,13.47
2017-06-30T00:08:18.926Z,13.44
2017-06-30T00:09:18.908Z,13.45
2017-06-30T00:10:18.581Z,13.44
2017-06-30T00:11:18.576Z,13.4
2017-06-30T00:12:18.248Z,13.47
2017-06-30T00:13:18.298Z,13.5
2017-06-30T00:14:18.259Z,13.53
2017-06-30T00:15:18.873Z,13.54
2017-06-30T00:16:18.869Z,13.62
2017-06-30T00:17:18.544Z,13.63
2017-06-30T00:18:18.560Z,13.57
2017-06-30T00:19:18.540Z,13.55
2017-06-30T00:20:18.527Z,13.63
2017-06-30T00:21:18.522Z,13.63
2017-06-30T00:22:18.200Z,13.69
2017-06-30T00:23:18.510Z,13.73
2017-06-30T00:24:18.823Z,13.7
2017-06-30T00:25:18.826Z,13.69
2017-06-30T00:26:18.525Z,13.72
2017-06-30T00:27:18.855Z,13.7
2017-06-30T00:28:18.808Z,13.68
2017-06-30T00:29:18.502Z,13.66
2017-06-30T00:30:18.152Z,13.69
2017-06-30T00:31:18.147Z,13.81
2017-06-30T00:32:18.785Z,13.73
2017-06-30T00:33:18.789Z,13.79
2017-06-30T00:34:18.449Z,13.75
2017-06-30T00:35:18.786Z,13.79
2017-06-30T00:36:18.766Z,13.86
2017-06-30T00:37:18.444Z,13.78
2017-06-30T00:38:18.450Z,13.78
2017-06-30T00:39:18.452Z,13.81
2017-06-30T00:40:18.107Z,13.9
2017-06-30T00:41:18.424Z,13.84
2017-06-30T00:42:18.750Z,13.87
2017-06-30T00:43:18.405Z,13.86
2017-06-30T00:44:18.410Z,13.84
2017-06-30T00:45:18.419Z,13.86
2017-06-30T00:46:18.711Z,13.86
2017-06-30T00:47:18.402Z,13.88
2017-06-30T00:48:18.715Z,13.79
2017-06-30T00:49:18.376Z,13.78
2017-06-30T00:50:18.051Z,13.73
2017-06-30T00:51:18.686Z,13.84
2017-06-30T00:52:18.369Z,13.65
2017-06-30T00:53:18.677Z,13.7
2017-06-30T00:54:18.376Z,13.66
2017-06-30T00:55:18.668Z,13.76
2017-06-30T00:56:18.664Z,13.79
2017-06-30T00:57:18.338Z,13.72
2017-06-30T00:58:18.649Z,13.79
2017-06-30T00:59:18.646Z,13.83
2017-06-30T01:00:18.317Z,13.79
2017-06-30T01:01:18.322Z,13.79
2017-06-30T01:02:18.307Z,13.78
2017-06-30T01:03:18.325Z,13.88
2017-06-30T01:04:18.303Z,13.84
2017-06-30T01:05:18.317Z,13.83
2017-06-30T01:06:18.614Z,13.88
2017-06-30T01:07:18.301Z,13.86
2017-06-30T01:08:18.600Z,13.9
2017-06-30T01:09:18.270Z,13.83
2017-06-30T01:10:18.270Z,13.87
2017-06-30T01:11:17.943Z,13.86
2017-06-30T01:12:18.580Z,13.87
2017-06-30T01:13:18.265Z,13.9
2017-06-30T01:14:17.923Z,13.84
2017-06-30T01:15:18.560Z,13.87
2017-06-30T01:16:18.243Z,13.87
2017-06-30T01:17:18.249Z,13.91
2017-06-30T01:18:18.545Z,13.88
2017-06-30T01:19:17.895Z,13.87
2017-06-30T01:20:18.538Z,13.86
2017-06-30T01:21:18.554Z,13.87
2017-06-30T01:22:18.211Z,13.86
2017-06-30T01:23:18.536Z,13.87
2017-06-30T01:24:17.894Z,13.87
2017-06-30T01:25:18.186Z,13.86
2017-06-30T01:26:18.182Z,13.91
2017-06-30T01:27:18.499Z,13.88
2017-06-30T01:28:18.511Z,13.87
2017-06-30T01:29:18.491Z,13.9
2017-06-30T01:30:17.840Z,13.9
2017-06-30T01:31:18.478Z,13.87
2017-06-30T01:32:18.494Z,13.86
2017-06-30T01:33:18.477Z,13.88
2017-06-30T01:34:18.479Z,13.84
2017-06-30T01:35:18.135Z,13.86
2017-06-30T01:36:18.131Z,13.86
2017-06-30T01:37:18.448Z,13.79
2017-06-30T01:38:17.800Z,13.87
2017-06-30T01:39:18.135Z,13.87
2017-06-30T01:40:17.809Z,13.81
2017-06-30T01:41:18.103Z,13.86
2017-06-30T01:42:18.098Z,13.78
2017-06-30T01:43:18.439Z,13.84
2017-06-30T01:44:18.410Z,13.75
2017-06-30T01:45:18.448Z,13.79
2017-06-30T01:46:18.082Z,13.69
2017-06-30T01:47:18.393Z,13.69
2017-06-30T01:48:18.073Z,13.7
2017-06-30T01:49:17.746Z,13.6
2017-06-30T01:50:18.075Z,13.65
2017-06-30T01:51:18.075Z,13.66
2017-06-30T01:52:18.047Z,13.62
2017-06-30T01:53:18.360Z,13.55
2017-06-30T01:54:18.059Z,13.58
2017-06-30T01:55:18.354Z,13.62
2017-06-30T01:56:18.374Z,13.6
2017-06-30T01:57:17.718Z,13.66
2017-06-30T01:58:18.040Z,13.7
2017-06-30T01:59:18.331Z,13.6
2017-06-30T02:00:17.683Z,13.75
2017-06-30T02:01:18.026Z,13.58
2017-06-30T02:02:17.993Z,13.7
2017-06-30T02:03:18.307Z,13.73
2017-06-30T02:04:17.985Z,13.68
2017-06-30T02:05:17.686Z,13.75
2017-06-30T02:06:18.293Z,13.7
2017-06-30T02:07:17.972Z,13.68
2017-06-30T02:08:17.639Z,13.68
2017-06-30T02:09:18.287Z,13.72
2017-06-30T02:10:18.300Z,13.78
2017-06-30T02:11:17.945Z,13.7
2017-06-30T02:12:17.949Z,13.7
2017-06-30T02:13:17.936Z,13.66
2017-06-30T02:14:17.933Z,13.72
2017-06-30T02:15:17.996Z,13.68
2017-06-30T02:16:18.240Z,13.7
2017-06-30T02:17:18.243Z,13.72
2017-06-30T02:18:18.233Z,13.72
2017-06-30T02:19:17.904Z,13.68
2017-06-30T02:20:18.255Z,13.69
2017-06-30T02:21:18.259Z,13.73
2017-06-30T02:22:17.888Z,13.73
2017-06-30T02:23:18.240Z,13.76
2017-06-30T02:24:17.900Z,13.68
2017-06-30T02:25:18.265Z,13.76
2017-06-30T02:26:17.543Z,13.81
2017-06-30T02:27:18.212Z,13.83
2017-06-30T02:28:17.536Z,13.76
2017-06-30T02:29:17.852Z,13.83
2017-06-30T02:30:17.533Z,13.69
2017-06-30T02:31:17.522Z,13.66
2017-06-30T02:32:18.158Z,13.72
2017-06-30T02:33:17.829Z,13.72
2017-06-30T02:34:17.838Z,13.73
2017-06-30T02:35:17.497Z,13.69
2017-06-30T02:36:17.836Z,13.7
2017-06-30T02:37:17.486Z,13.72
2017-06-30T02:38:18.128Z,13.62
2017-06-30T02:39:17.797Z,13.62
2017-06-30T02:40:17.804Z,13.62
2017-06-30T02:41:17.789Z,13.69
2017-06-30T02:42:17.779Z,13.66
2017-06-30T02:43:17.468Z,13.6
2017-06-30T02:44:17.795Z,13.57
2017-06-30T02:45:17.766Z,13.62
2017-06-30T02:46:18.088Z,13.68
2017-06-30T02:47:17.756Z,13.6
2017-06-30T02:48:17.751Z,13.7
2017-06-30T02:49:17.759Z,13.58
2017-06-30T02:50:18.081Z,13.66
2017-06-30T02:51:18.055Z,13.72
2017-06-30T02:52:18.052Z,13.78
2017-06-30T02:53:17.724Z,13.6
2017-06-30T02:54:18.039Z,13.63
2017-06-30T02:55:18.048Z,13.73
2017-06-30T02:56:17.390Z,13.69
2017-06-30T02:57:18.047Z,13.62
2017-06-30T02:58:18.022Z,13.68
2017-06-30T02:59:17.694Z,13.58
2017-06-30T03:00:17.701Z,13.68
2017-06-30T03:01:18.025Z,13.66
2017-06-30T03:02:18.024Z,13.58
2017-06-30T03:03:17.688Z,13.69
2017-06-30T03:04:18.019Z,13.58
2017-06-30T03:05:18.006Z,13.65
2017-06-30T03:06:17.653Z,13.72
2017-06-30T03:07:17.657Z,13.66
2017-06-30T03:08:17.658Z,13.75
2017-06-30T03:09:17.643Z,13.72
2017-06-30T03:10:17.960Z,13.62
2017-06-30T03:11:17.957Z,13.69
2017-06-30T03:12:17.646Z,13.63
2017-06-30T03:13:17.996Z,13.68
2017-06-30T03:14:17.938Z,13.68
2017-06-30T03:15:17.288Z,13.68
2017-06-30T03:16:17.603Z,13.72
2017-06-30T03:17:17.928Z,13.58
2017-06-30T03:18:17.929Z,13.58
2017-06-30T03:19:17.907Z,13.6
2017-06-30T03:20:17.961Z,13.62
2017-06-30T03:21:17.904Z,13.63
2017-06-30T03:22:17.596Z,13.62
2017-06-30T03:23:17.900Z,13.6
2017-06-30T03:24:17.887Z,13.55
2017-06-30T03:25:17.557Z,13.57
2017-06-30T03:26:17.897Z,13.55
2017-06-30T03:27:17.897Z,13.6
2017-06-30T03:28:17.542Z,13.55
2017-06-30T03:29:17.568Z,13.55
2017-06-30T03:30:17.854Z,13.53
2017-06-30T03:31:17.528Z,13.55
2017-06-30T03:32:17.541Z,13.55
2017-06-30T03:33:17.857Z,13.6
2017-06-30T03:34:17.831Z,13.55
2017-06-30T03:35:17.518Z,13.6
2017-06-30T03:36:17.821Z,13.69
2017-06-30T03:37:17.498Z,13.69
2017-06-30T03:38:17.506Z,13.65
2017-06-30T03:39:17.808Z,13.58
2017-06-30T03:40:17.801Z,13.68
2017-06-30T03:41:17.815Z,13.69
2017-06-30T03:42:17.788Z,13.65
2017-06-30T03:43:17.461Z,13.69
2017-06-30T03:44:17.456Z,13.6
2017-06-30T03:45:17.772Z,13.72
2017-06-30T03:46:17.766Z,13.62
2017-06-30T03:47:17.761Z,13.7
2017-06-30T03:48:17.755Z,13.6
2017-06-30T03:49:17.107Z,13.6
2017-06-30T03:50:17.742Z,13.6
2017-06-30T03:51:17.447Z,13.7
2017-06-30T03:52:17.106Z,13.62
2017-06-30T03:53:17.728Z,13.69
2017-06-30T03:54:17.401Z,13.68
2017-06-30T03:55:17.726Z,13.7
2017-06-30T03:56:17.714Z,13.66
2017-06-30T03:57:17.715Z,13.72
2017-06-30T03:58:17.378Z,13.62
2017-06-30T03:59:17.050Z,13.6
2017-06-30T04:00:17.366Z,13.58
2017-06-30T04:01:17.399Z,13.66
2017-06-30T04:02:17.681Z,13.65
2017-06-30T04:03:17.708Z,13.54
2017-06-30T04:04:17.666Z,13.58
2017-06-30T04:05:17.675Z,13.57
2017-06-30T04:06:17.691Z,13.58
2017-06-30T04:07:17.657Z,13.69
2017-06-30T04:08:17.326Z,13.53
2017-06-30T04:09:16.996Z,13.55
2017-06-30T04:10:17.314Z,13.54
2017-06-30T04:11:17.629Z,13.53
2017-06-30T04:12:17.622Z,13.55
2017-06-30T04:13:17.618Z,13.57
2017-06-30T04:14:17.627Z,13.54
2017-06-30T04:15:17.608Z,13.62
2017-06-30T04:16:17.621Z,13.57
2017-06-30T04:17:17.303Z,13.54
2017-06-30T04:18:17.268Z,13.63
2017-06-30T04:19:17.603Z,13.55
2017-06-30T04:20:17.267Z,13.57
2017-06-30T04:21:17.265Z,13.57
2017-06-30T04:22:17.260Z,13.6
2017-06-30T04:23:17.563Z,13.48
2017-06-30T04:24:17.564Z,13.55
2017-06-30T04:25:17.235Z,13.53
2017-06-30T04:26:17.542Z,13.55
2017-06-30T04:27:17.554Z,13.5
2017-06-30T04:28:17.532Z,13.53
2017-06-30T04:29:17.215Z,13.55
2017-06-30T04:30:17.234Z,13.48
2017-06-30T04:31:17.218Z,13.57
2017-06-30T04:32:17.519Z,13.51
2017-06-30T04:33:17.187Z,13.55
2017-06-30T04:34:17.532Z,13.53
2017-06-30T04:35:17.499Z,13.55
2017-06-30T04:36:17.169Z,13.53
2017-06-30T04:37:17.162Z,13.5
2017-06-30T04:38:17.154Z,13.5
2017-06-30T04:39:17.479Z,13.54
2017-06-30T04:40:17.486Z,13.51
2017-06-30T04:41:17.464Z,13.53
2017-06-30T04:42:17.455Z,13.45
2017-06-30T04:43:17.473Z,13.51
2017-06-30T04:44:17.444Z,13.48
2017-06-30T04:45:17.116Z,13.47
2017-06-30T04:46:17.120Z,13.5
2017-06-30T04:47:17.105Z,13.51
2017-06-30T04:48:17.102Z,13.48
2017-06-30T04:49:17.413Z,13.42
2017-06-30T04:50:17.422Z,13.4
2017-06-30T04:51:17.096Z,13.48
2017-06-30T04:52:16.766Z,13.45
2017-06-30T04:53:17.413Z,13.48
2017-06-30T04:54:17.073Z,13.45
2017-06-30T04:55:16.741Z,13.51
2017-06-30T04:56:17.379Z,13.48
2017-06-30T04:57:17.050Z,13.45
2017-06-30T04:58:17.390Z,13.53
2017-06-30T04:59:17.373Z,13.45
2017-06-30T05:00:17.047Z,13.51
2017-06-30T05:01:17.028Z,13.42
2017-06-30T05:02:17.350Z,13.51
2017-06-30T05:03:17.354Z,13.42
2017-06-30T05:04:17.351Z,13.5
2017-06-30T05:05:17.334Z,13.42
2017-06-30T05:06:17.009Z,13.39
2017-06-30T05:07:17.357Z,13.4
2017-06-30T05:08:17.308Z,13.4
2017-06-30T05:09:17.328Z,13.48
2017-06-30T05:10:16.977Z,13.44
2017-06-30T05:11:16.648Z,13.51
2017-06-30T05:12:17.288Z,13.45
2017-06-30T05:13:17.290Z,13.54
2017-06-30T05:14:17.273Z,13.45
2017-06-30T05:15:17.288Z,13.54
2017-06-30T05:16:16.945Z,13.47
2017-06-30T05:17:17.278Z,13.5
2017-06-30T05:18:16.931Z,13.45
2017-06-30T05:19:16.603Z,13.5
2017-06-30T05:20:17.239Z,13.5
2017-06-30T05:21:16.599Z,13.47
2017-06-30T05:22:16.908Z,13.44
2017-06-30T05:23:16.598Z,13.42
2017-06-30T05:24:16.901Z,13.42
2017-06-30T05:25:17.232Z,13.45
2017-06-30T05:26:17.210Z,13.44
2017-06-30T05:27:16.889Z,13.55
2017-06-30T05:28:17.192Z,13.42
2017-06-30T05:29:16.864Z,13.39
2017-06-30T05:30:17.190Z,13.51
2017-06-30T05:31:17.197Z,13.45
2017-06-30T05:32:17.168Z,13.44
2017-06-30T05:33:17.166Z,13.4
2017-06-30T05:34:16.874Z,13.48
2017-06-30T05:35:16.832Z,13.45
2017-06-30T05:36:16.846Z,13.54
2017-06-30T05:37:17.143Z,13.47
2017-06-30T05:38:16.491Z,13.44
2017-06-30T05:39:16.810Z,13.48
2017-06-30T05:40:17.124Z,13.48
2017-06-30T05:41:16.812Z,13.44
2017-06-30T05:42:16.796Z,13.44
2017-06-30T05:43:17.112Z,13.53
2017-06-30T05:44:16.779Z,13.53
2017-06-30T05:45:17.097Z,13.51
2017-06-30T05:46:16.447Z,13.44
2017-06-30T05:47:17.087Z,13.53
2017-06-30T05:48:17.093Z,13.48
2017-06-30T05:49:17.084Z,13.42
2017-06-30T05:50:16.748Z,13.48
2017-06-30T05:51:17.073Z,13.45
2017-06-30T05:52:16.753Z,13.4
2017-06-30T05:53:17.051Z,13.47
2017-06-30T05:54:17.046Z,13.54
2017-06-30T05:55:16.725Z,13.5
2017-06-30T05:56:17.032Z,13.42
2017-06-30T05:57:16.709Z,13.47
2017-06-30T05:58:17.038Z,13.44
2017-06-30T05:59:17.018Z,13.47
2017-06-30T06:00:16.708Z,13.37
2017-06-30T06:01:17.026Z,13.35
2017-06-30T06:02:17.002Z,13.4
2017-06-30T06:03:16.354Z,13.29
2017-06-30T06:04:16.666Z,13.25
2017-06-30T06:05:16.662Z,13.28
2017-06-30T06:06:17.008Z,13.37
2017-06-30T06:07:16.984Z,13.36
2017-06-30T06:08:16.664Z,13.29
2017-06-30T06:09:16.973Z,13.27
2017-06-30T06:10:16.983Z,13.4
2017-06-30T06:11:16.948Z,13.32
2017-06-30T06:12:16.944Z,13.39
2017-06-30T06:13:16.947Z,13.37
2017-06-30T06:14:16.937Z,13.39
2017-06-30T06:15:16.607Z,13.32
2017-06-30T06:16:16.952Z,13.39
2017-06-30T06:17:16.932Z,13.36
2017-06-30T06:18:16.909Z,13.44
2017-06-30T06:19:16.283Z,13.39
2017-06-30T06:20:16.578Z,13.35
2017-06-30T06:21:16.894Z,13.35
2017-06-30T06:22:16.244Z,13.32
2017-06-30T06:23:16.901Z,13.28
2017-06-30T06:24:16.874Z,13.37
2017-06-30T06:25:16.869Z,13.35
2017-06-30T06:26:16.861Z,13.29
2017-06-30T06:27:16.535Z,13.27
2017-06-30T06:28:16.861Z,13.31
2017-06-30T06:29:16.530Z,13.24
2017-06-30T06:30:16.528Z,13.31
2017-06-30T06:31:16.842Z,13.4
2017-06-30T06:32:16.825Z,13.42
2017-06-30T06:33:16.819Z,13.39
2017-06-30T06:34:16.498Z,13.48
2017-06-30T06:35:16.813Z,13.44
2017-06-30T06:36:16.833Z,13.48
2017-06-30T06:37:16.156Z,13.55
2017-06-30T06:38:16.797Z,13.63
2017-06-30T06:39:16.463Z,13.69
2017-06-30T06:40:16.494Z,13.58
2017-06-30T06:41:16.454Z,13.78
2017-06-30T06:42:16.447Z,13.86
2017-06-30T06:43:16.787Z,13.83
2017-06-30T06:44:16.764Z,13.9
2017-06-30T06:45:16.765Z,13.94
2017-06-30T06:46:16.436Z,13.93
2017-06-30T06:47:16.743Z,13.99
2017-06-30T06:48:16.433Z,13.97
2017-06-30T06:49:16.427Z,14.01
2017-06-30T06:50:16.726Z,14.03
2017-06-30T06:51:16.722Z,14.21
2017-06-30T06:52:16.071Z,14.16
2017-06-30T06:53:16.710Z,14.27
2017-06-30T06:54:16.719Z,14.28
2017-06-30T06:55:16.393Z,14.34
2017-06-30T06:56:16.370Z,14.48
2017-06-30T06:57:16.684Z,14.45
2017-06-30T06:58:16.361Z,14.46
2017-06-30T06:59:16.355Z,14.61
2017-06-30T07:00:16.672Z,14.63
2017-06-30T07:01:16.664Z,14.63
2017-06-30T07:02:16.341Z,14.69
2017-06-30T07:03:16.393Z,14.61
2017-06-30T07:04:16.676Z,14.63
2017-06-30T07:05:16.329Z,14.8
2017-06-30T07:06:16.329Z,14.7
2017-06-30T07:07:16.635Z,14.86
2017-06-30T07:08:16.326Z,14.83
2017-06-30T07:09:16.629Z,14.98
2017-06-30T07:10:16.625Z,15.04
2017-06-30T07:11:15.996Z,15.08
2017-06-30T07:12:16.621Z,15.02
2017-06-30T07:13:15.968Z,15.13
2017-06-30T07:14:16.604Z,15.27
2017-06-30T07:15:16.277Z,15.41
2017-06-30T07:16:16.603Z,15.45
2017-06-30T07:17:16.604Z,15.63
2017-06-30T07:18:16.295Z,15.7
2017-06-30T07:19:16.265Z,15.74
2017-06-30T07:20:16.593Z,15.81
2017-06-30T07:21:16.583Z,16.02
2017-06-30T07:22:16.576Z,16.13
2017-06-30T07:23:16.263Z,16.18
2017-06-30T07:24:16.247Z,16.21
2017-06-30T07:25:16.260Z,16.26
2017-06-30T07:26:16.239Z,16.42
2017-06-30T07:27:16.242Z,16.52
2017-06-30T07:28:16.254Z,16.72
2017-06-30T07:29:16.245Z,16.74
2017-06-30T07:30:16.541Z,16.77
2017-06-30T07:31:15.899Z,16.82
2017-06-30T07:32:16.224Z,16.7
2017-06-30T07:33:16.214Z,16.69
2017-06-30T07:34:16.211Z,16.58
2017-06-30T07:35:15.888Z,16.42
2017-06-30T07:36:16.599Z,16.29
2017-06-30T07:37:16.234Z,16.26
2017-06-30T07:38:16.203Z,16.26
2017-06-30T07:39:16.524Z,16.17
2017-06-30T07:40:15.897Z,16.07
2017-06-30T07:41:16.196Z,16
2017-06-30T07:42:15.872Z,15.88
2017-06-30T07:43:16.527Z,15.8
2017-06-30T07:44:15.865Z,15.77
2017-06-30T07:45:16.527Z,15.62
2017-06-30T07:46:16.530Z,15.67
2017-06-30T07:47:16.179Z,15.59
2017-06-30T07:48:16.204Z,15.55
2017-06-30T07:49:16.529Z,15.63
2017-06-30T07:50:16.170Z,15.53
2017-06-30T07:51:16.187Z,15.47
2017-06-30T07:52:15.835Z,15.51
2017-06-30T07:53:16.478Z,15.51
2017-06-30T07:54:16.154Z,15.47
2017-06-30T07:55:15.828Z,15.43
2017-06-30T07:56:16.146Z,15.43
2017-06-30T07:57:16.719Z,15.43
2017-06-30T07:58:16.658Z,15.58
2017-06-30T07:59:16.556Z,15.59
2017-06-30T08:00:16.856Z,15.63
2017-06-30T08:01:16.149Z,15.73
2017-06-30T08:02:16.124Z,15.71
2017-06-30T08:03:16.441Z,15.63
2017-06-30T08:04:16.450Z,15.59
2017-06-30T08:05:16.114Z,15.53
2017-06-30T08:06:16.430Z,15.52
2017-06-30T08:07:16.432Z,15.47
2017-06-30T08:08:15.781Z,15.51
2017-06-30T08:09:15.781Z,15.53
2017-06-30T08:10:16.416Z,15.56
2017-06-30T08:11:16.426Z,15.6
2017-06-30T08:12:16.097Z,15.7
2017-06-30T08:13:16.083Z,15.74
2017-06-30T08:14:16.406Z,15.86
2017-06-30T08:15:16.399Z,15.86
2017-06-30T08:16:16.439Z,16
2017-06-30T08:17:16.079Z,16.02
2017-06-30T08:18:16.392Z,16.07
2017-06-30T08:19:16.385Z,16.06
2017-06-30T08:20:16.060Z,15.99
2017-06-30T08:21:16.090Z,15.88
2017-06-30T08:22:16.387Z,15.89
2017-06-30T08:23:16.387Z,15.96
2017-06-30T08:24:16.049Z,16.02
2017-06-30T08:25:16.374Z,16.33
2017-06-30T08:26:16.361Z,16.63
2017-06-30T08:27:16.036Z,16.9
2017-06-30T08:28:16.030Z,17.2
2017-06-30T08:29:16.029Z,17.49
2017-06-30T08:30:16.394Z,17.66
2017-06-30T08:31:16.345Z,17.9
2017-06-30T08:32:16.341Z,18.05
2017-06-30T08:33:16.357Z,18.24
2017-06-30T08:34:16.335Z,18.34
2017-06-30T08:35:16.350Z,18.56
2017-06-30T08:36:16.338Z,18.61
2017-06-30T08:37:16.003Z,18.68
2017-06-30T08:38:16.372Z,18.82
2017-06-30T08:39:16.015Z,18.78
2017-06-30T08:40:16.000Z,18.68
2017-06-30T08:41:16.317Z,18.57
2017-06-30T08:42:15.681Z,18.47
2017-06-30T08:43:16.335Z,18.47
2017-06-30T08:44:16.330Z,18.42
2017-06-30T08:45:15.989Z,18.42
2017-06-30T08:46:16.311Z,18.35
2017-06-30T08:47:16.337Z,18.54
2017-06-30T08:48:16.305Z,18.61
2017-06-30T08:49:16.306Z,18.89
2017-06-30T08:50:16.312Z,19
2017-06-30T08:51:15.999Z,19.17
2017-06-30T08:52:15.989Z,19.4
2017-06-30T08:53:15.989Z,19.4
2017-06-30T08:54:16.298Z,19.37
2017-06-30T08:55:15.975Z,19.34
2017-06-30T08:56:15.975Z,19.19
2017-06-30T08:57:16.304Z,19.07
2017-06-30T08:58:15.970Z,19.07
2017-06-30T08:59:15.972Z,19.02
2017-06-30T09:00:16.007Z,19.02
2017-06-30T09:01:15.661Z,19.05
2017-06-30T09:02:16.306Z,18.97
2017-06-30T09:03:16.288Z,19
2017-06-30T09:04:16.286Z,18.96
2017-06-30T09:05:16.300Z,18.89
2017-06-30T09:06:15.964Z,18.78
2017-06-30T09:07:15.960Z,18.63
2017-06-30T09:08:15.640Z,18.65
2017-06-30T09:09:16.288Z,18.54
2017-06-30T09:10:16.313Z,18.49
2017-06-30T09:11:16.290Z,18.49
2017-06-30T09:12:16.280Z,18.65
2017-06-30T09:13:15.955Z,18.5
2017-06-30T09:14:16.272Z,18.56
2017-06-30T09:15:16.278Z,18.57
2017-06-30T09:16:15.973Z,18.74
2017-06-30T09:17:15.960Z,18.56
2017-06-30T09:18:16.279Z,18.47
2017-06-30T09:19:16.278Z,18.44
2017-06-30T09:20:16.266Z,18.35
2017-06-30T09:21:15.958Z,18.26
2017-06-30T09:22:15.961Z,18.16
2017-06-30T09:23:16.280Z,18.01
2017-06-30T09:24:16.283Z,18.02
2017-06-30T09:25:15.963Z,18.06
2017-06-30T09:26:16.273Z,18.23
2017-06-30T09:27:15.965Z,18.35
2017-06-30T09:28:16.262Z,18.41
2017-06-30T09:29:16.260Z,18.44
2017-06-30T09:30:16.276Z,18.45
2017-06-30T09:31:16.257Z,18.49
2017-06-30T09:32:15.950Z,18.42
2017-06-30T09:33:16.268Z,18.38
2017-06-30T09:34:16.270Z,18.24
2017-06-30T09:35:15.926Z,18.21
2017-06-30T09:36:15.923Z,18.05
2017-06-30T09:37:15.608Z,17.83
2017-06-30T09:38:16.253Z,17.69
2017-06-30T09:39:15.939Z,17.8
2017-06-30T09:40:15.950Z,18.08
2017-06-30T09:41:15.613Z,18.41
2017-06-30T09:42:16.250Z,18.76
2017-06-30T09:43:15.917Z,19.07
2017-06-30T09:44:15.956Z,19.3
2017-06-30T09:45:15.922Z,19.46
2017-06-30T09:46:15.913Z,19.49
2017-06-30T09:47:15.591Z,19.82
2017-06-30T09:48:15.592Z,20.07
2017-06-30T09:49:15.908Z,20.26
2017-06-30T09:50:16.229Z,20.26
2017-06-30T09:51:16.238Z,20.4
2017-06-30T09:52:16.245Z,20.4
2017-06-30T09:53:15.904Z,20.42
2017-06-30T09:54:15.920Z,20.42
2017-06-30T09:55:15.905Z,20.53
2017-06-30T09:56:16.234Z,20.74
2017-06-30T09:57:16.233Z,20.71
2017-06-30T09:58:15.916Z,20.63
2017-06-30T09:59:16.225Z,20.48
2017-06-30T10:00:15.918Z,20.26
2017-06-30T10:01:16.035Z,20.15
2017-06-30T10:02:15.908Z,20.05
2017-06-30T10:03:15.901Z,20.05
2017-06-30T10:04:16.258Z,19.98
2017-06-30T10:05:15.931Z,19.98
2017-06-30T10:06:15.921Z,19.85
2017-06-30T10:07:16.239Z,19.78
2017-06-30T10:08:16.224Z,19.68
2017-06-30T10:09:15.899Z,19.52
2017-06-30T10:10:15.897Z,19.53
2017-06-30T10:11:17.061Z,19.53
2017-06-30T10:12:15.897Z,19.53
2017-06-30T10:13:15.899Z,19.5
2017-06-30T10:14:16.238Z,19.55
2017-06-30T10:15:15.895Z,19.68
2017-06-30T10:16:16.213Z,19.85
2017-06-30T10:17:16.233Z,20
2017-06-30T10:18:15.923Z,20.27
2017-06-30T10:19:15.903Z,20.61
2017-06-30T10:20:15.933Z,20.74
2017-06-30T10:21:16.212Z,20.9
2017-06-30T10:22:15.904Z,21.09
2017-06-30T10:23:16.012Z,21.16
2017-06-30T10:24:16.212Z,21.16
2017-06-30T10:25:16.214Z,20.88
2017-06-30T10:26:15.911Z,20.54
2017-06-30T10:27:15.896Z,20.23
2017-06-30T10:28:15.593Z,19.97
2017-06-30T10:29:15.890Z,19.68
2017-06-30T10:30:15.893Z,19.35
2017-06-30T10:31:15.915Z,19.15
2017-06-30T10:32:16.277Z,18.97
2017-06-30T10:33:15.922Z,18.66
2017-06-30T10:34:15.889Z,18.5
2017-06-30T10:35:15.904Z,18.1
2017-06-30T10:36:15.905Z,18.17
2017-06-30T10:37:15.888Z,17.99
2017-06-30T10:38:16.217Z,17.87
2017-06-30T10:39:15.598Z,17.77
2017-06-30T10:40:16.206Z,17.68
2017-06-30T10:41:15.890Z,17.49
2017-06-30T10:42:16.205Z,17.39
2017-06-30T10:43:15.878Z,17.1
2017-06-30T10:44:16.224Z,16.92
2017-06-30T10:45:15.889Z,16.7
2017-06-30T10:46:15.552Z,16.58
2017-06-30T10:47:16.237Z,16.62
2017-06-30T10:48:16.189Z,16.69
2017-06-30T10:49:16.194Z,16.66
2017-06-30T10:50:16.191Z,16.65
2017-06-30T10:51:15.861Z,16.65
2017-06-30T10:52:15.857Z,16.58
2017-06-30T10:53:15.862Z,16.52
2017-06-30T10:54:15.857Z,16.52
2017-06-30T10:55:16.173Z,16.37
2017-06-30T10:56:15.849Z,16.36
2017-06-30T10:57:15.861Z,16.32
2017-06-30T10:58:15.842Z,16.36
2017-06-30T10:59:15.843Z,16.25
2017-06-30T11:00:15.840Z,16.36
2017-06-30T11:01:16.175Z,16.39
2017-06-30T11:02:16.162Z,16.7
2017-06-30T11:03:16.153Z,16.99
2017-06-30T11:04:15.828Z,17.15
2017-06-30T11:05:16.149Z,17.54
2017-06-30T11:06:15.823Z,17.73
2017-06-30T11:07:15.821Z,18.01
2017-06-30T11:08:16.141Z,18.16
2017-06-30T11:09:15.823Z,18.29
2017-06-30T11:10:15.810Z,18.32
2017-06-30T11:11:16.128Z,18.35
2017-06-30T11:12:15.805Z,18.32
2017-06-30T11:13:16.125Z,18.34
2017-06-30T11:14:15.481Z,18.42
2017-06-30T11:15:16.148Z,18.36
2017-06-30T11:16:15.808Z,18.44
2017-06-30T11:17:15.796Z,18.47
2017-06-30T11:18:16.116Z,18.51
2017-06-30T11:19:16.114Z,18.47
2017-06-30T11:20:15.792Z,18.54
2017-06-30T11:21:15.804Z,18.53
2017-06-30T11:22:16.106Z,18.51
2017-06-30T11:23:16.120Z,18.34
2017-06-30T11:24:15.788Z,18.27
2017-06-30T11:25:15.776Z,18.24
2017-06-30T11:26:16.094Z,18.26
2017-06-30T11:27:15.771Z,18.19
2017-06-30T11:28:15.773Z,18.21
2017-06-30T11:29:15.784Z,18.34
2017-06-30T11:30:16.087Z,18.44
2017-06-30T11:31:15.771Z,18.45
2017-06-30T11:32:15.767Z,18.42
2017-06-30T11:33:15.440Z,18.51
2017-06-30T11:34:15.774Z,18.44
2017-06-30T11:35:16.088Z,18.34
2017-06-30T11:36:15.457Z,18.34
2017-06-30T11:37:16.083Z,18.35
2017-06-30T11:38:16.078Z,18.38
2017-06-30T11:39:16.077Z,18.32
2017-06-30T11:40:16.095Z,18.26
2017-06-30T11:41:16.072Z,18.32
2017-06-30T11:42:16.068Z,18.36
2017-06-30T11:43:16.085Z,18.35
2017-06-30T11:44:16.080Z,18.35
2017-06-30T11:45:15.740Z,18.32
2017-06-30T11:46:15.751Z,18.34
2017-06-30T11:47:15.739Z,18.24
2017-06-30T11:48:16.071Z,18.36
2017-06-30T11:49:16.072Z,18.27
2017-06-30T11:50:15.413Z,18.34
2017-06-30T11:51:15.729Z,18.38
2017-06-30T11:52:16.059Z,18.27
2017-06-30T11:53:15.728Z,18.42
2017-06-30T11:54:16.049Z,18.63
2017-06-30T11:55:15.401Z,18.63
2017-06-30T11:56:16.050Z,18.75
2017-06-30T11:57:16.045Z,18.65
2017-06-30T11:58:16.042Z,18.78
2017-06-30T11:59:15.403Z,18.87
2017-06-30T12:00:15.425Z,18.97
2017-06-30T12:01:15.724Z,19.1
2017-06-30T12:02:15.734Z,19.16
2017-06-30T12:03:15.715Z,19.32
2017-06-30T12:04:15.725Z,19.34
2017-06-30T12:05:15.721Z,19.4
2017-06-30T12:06:15.710Z,19.28
2017-06-30T12:07:16.032Z,19.3
2017-06-30T12:08:15.710Z,19.16
2017-06-30T12:09:15.704Z,18.96
2017-06-30T12:10:16.025Z,18.93
2017-06-30T12:11:15.702Z,18.72
2017-06-30T12:12:16.027Z,18.54
2017-06-30T12:13:15.709Z,18.53
2017-06-30T12:14:15.381Z,18.5
2017-06-30T12:15:16.029Z,18.56
2017-06-30T12:16:15.717Z,18.61
2017-06-30T12:17:15.699Z,18.59
2017-06-30T12:18:15.702Z,18.69
2017-06-30T12:19:16.034Z,18.65
2017-06-30T12:20:16.081Z,18.74
2017-06-30T12:21:16.015Z,18.79
2017-06-30T12:22:16.010Z,18.9
2017-06-30T12:23:16.020Z,18.91
2017-06-30T12:24:15.686Z,18.91
2017-06-30T12:25:15.701Z,18.9
2017-06-30T12:26:16.010Z,18.87
2017-06-30T12:27:15.359Z,18.79
2017-06-30T12:28:16.005Z,18.74
2017-06-30T12:29:15.998Z,18.63
2017-06-30T12:30:16.002Z,18.54
2017-06-30T12:31:16.002Z,18.56
2017-06-30T12:32:15.677Z,18.47
2017-06-30T12:33:15.680Z,18.41
2017-06-30T12:34:15.351Z,18.34
2017-06-30T12:35:16.069Z,18.31
2017-06-30T12:36:16.001Z,18.2
2017-06-30T12:37:15.995Z,18.23
2017-06-30T12:38:15.669Z,18.32
2017-06-30T12:39:15.354Z,18.26
2017-06-30T12:40:15.683Z,18.27
2017-06-30T12:41:15.674Z,18.26
2017-06-30T12:42:15.660Z,18.23
2017-06-30T12:43:15.669Z,18.27
2017-06-30T12:44:15.668Z,18.31
2017-06-30T12:45:15.657Z,18.31
2017-06-30T12:46:15.674Z,18.34
2017-06-30T12:47:15.669Z,18.45
2017-06-30T12:48:15.651Z,18.6
2017-06-30T12:49:15.651Z,18.81
2017-06-30T12:50:15.648Z,18.97
2017-06-30T12:51:15.969Z,19.15
2017-06-30T12:52:15.648Z,19.2
2017-06-30T12:53:15.962Z,19.19
2017-06-30T12:54:15.641Z,19.2
2017-06-30T12:55:15.641Z,19.38
2017-06-30T12:56:15.322Z,19.43